sensor_id;sensor_type;location;lat;lon;timestamp;pressure;altitude;pressure_sealevel;temperature;humidity
3444;BME280;1736;52.068;6.968;2023-03-04T00:01:05;102010.03;;;5.25;80.47
3444;BME280;1736;52.068;6.968;2023-03-04T00:03:31;102010.97;;;5.24;80.66
3444;BME280;1736;52.068;6.968;2023-03-04T00:05:58;102013.81;;;5.18;80.91
3444;BME280;1736;52.068;6.968;2023-03-04T00:08:25;102012.91;;;5.19;80.89
3444;BME280;1736;52.068;6.968;2023-03-04T00:10:51;102011.19;;;5.18;80.83
3444;BME280;1736;52.068;6.968;2023-03-04T00:13:18;102014.81;;;5.15;80.95
3444;BME280;1736;52.068;6.968;2023-03-04T00:15:48;102009.81;;;5.09;81.43
3444;BME280;1736;52.068;6.968;2023-03-04T00:18:14;102011.00;;;5.22;80.84
3444;BME280;1736;52.068;6.968;2023-03-04T00:20:41;102010.97;;;5.24;80.78
3444;BME280;1736;52.068;6.968;2023-03-04T00:23:08;102012.00;;;5.20;81.04
3444;BME280;1736;52.068;6.968;2023-03-04T00:25:35;102008.75;;;5.13;81.24
3444;BME280;1736;52.068;6.968;2023-03-04T00:28:01;102014.81;;;5.15;81.53
3444;BME280;1736;52.068;6.968;2023-03-04T00:30:28;102005.53;;;5.07;82.10
3444;BME280;1736;52.068;6.968;2023-03-04T00:32:56;102012.78;;;5.22;81.77
3444;BME280;1736;52.068;6.968;2023-03-04T00:35:22;102004.59;;;5.29;81.29
3444;BME280;1736;52.068;6.968;2023-03-04T00:37:49;102005.88;;;5.19;81.51
3444;BME280;1736;52.068;6.968;2023-03-04T00:40:16;102006.97;;;5.14;82.46
3444;BME280;1736;52.068;6.968;2023-03-04T00:42:43;102002.50;;;5.16;82.40
3444;BME280;1736;52.068;6.968;2023-03-04T00:45:09;102003.94;;;5.03;82.65
3444;BME280;1736;52.068;6.968;2023-03-04T00:47:36;102006.72;;;5.20;82.43
3444;BME280;1736;52.068;6.968;2023-03-04T00:50:05;102002.50;;;5.16;82.03
3444;BME280;1736;52.068;6.968;2023-03-04T00:52:32;102004.16;;;5.18;82.48
3444;BME280;1736;52.068;6.968;2023-03-04T00:54:58;102002.56;;;5.14;82.11
3444;BME280;1736;52.068;6.968;2023-03-04T00:57:25;102004.03;;;5.21;82.26
3444;BME280;1736;52.068;6.968;2023-03-04T00:59:52;101992.03;;;5.14;82.03
3444;BME280;1736;52.068;6.968;2023-03-04T01:02:18;102005.81;;;5.21;82.55
3444;BME280;1736;52.068;6.968;2023-03-04T01:04:45;101996.38;;;5.15;82.30
3444;BME280;1736;52.068;6.968;2023-03-04T01:07:13;101999.81;;;5.17;82.72
3444;BME280;1736;52.068;6.968;2023-03-04T01:09:39;101993.56;;;5.20;82.58
3444;BME280;1736;52.068;6.968;2023-03-04T01:12:06;101993.75;;;5.15;82.34
3444;BME280;1736;52.068;6.968;2023-03-04T01:14:33;101996.22;;;5.20;82.46
3444;BME280;1736;52.068;6.968;2023-03-04T01:17:00;101996.75;;;5.06;82.49
3444;BME280;1736;52.068;6.968;2023-03-04T01:19:27;101989.75;;;5.07;82.46
3444;BME280;1736;52.068;6.968;2023-03-04T01:21:53;101986.28;;;5.05;82.48
3444;BME280;1736;52.068;6.968;2023-03-04T01:24:21;101986.72;;;5.16;82.02
3444;BME280;1736;52.068;6.968;2023-03-04T01:26:48;101979.59;;;5.18;81.11
3444;BME280;1736;52.068;6.968;2023-03-04T01:29:14;101985.53;;;5.03;81.52
3444;BME280;1736;52.068;6.968;2023-03-04T01:31:41;101983.72;;;5.03;81.75
3444;BME280;1736;52.068;6.968;2023-03-04T01:34:07;101992.09;;;5.13;81.75
3444;BME280;1736;52.068;6.968;2023-03-04T01:36:35;101977.34;;;5.09;82.05
3444;BME280;1736;52.068;6.968;2023-03-04T01:39:01;101978.03;;;5.14;81.83
3444;BME280;1736;52.068;6.968;2023-03-04T01:41:29;101974.19;;;5.01;82.10
3444;BME280;1736;52.068;6.968;2023-03-04T01:43:57;101962.50;;;5.08;82.38
3444;BME280;1736;52.068;6.968;2023-03-04T01:46:26;101973.63;;;5.14;82.72
3444;BME280;1736;52.068;6.968;2023-03-04T01:48:54;101964.88;;;5.14;81.89
3444;BME280;1736;52.068;6.968;2023-03-04T01:51:21;101970.13;;;5.14;81.71
3444;BME280;1736;52.068;6.968;2023-03-04T01:53:49;101963.38;;;5.08;82.45
3444;BME280;1736;52.068;6.968;2023-03-04T01:56:21;101965.84;;;5.11;82.24
3444;BME280;1736;52.068;6.968;2023-03-04T01:59:08;101957.91;;;5.13;82.12
3444;BME280;1736;52.068;6.968;2023-03-04T02:01:37;101952.91;;;5.07;82.82
3444;BME280;1736;52.068;6.968;2023-03-04T02:04:03;101955.25;;;5.13;82.63
3444;BME280;1736;52.068;6.968;2023-03-04T02:06:31;101948.47;;;5.07;82.84
3444;BME280;1736;52.068;6.968;2023-03-04T02:08:57;101950.22;;;5.08;83.10
3444;BME280;1736;52.068;6.968;2023-03-04T02:11:24;101953.03;;;5.04;83.30
3444;BME280;1736;52.068;6.968;2023-03-04T02:13:51;101952.47;;;4.96;83.00
3444;BME280;1736;52.068;6.968;2023-03-04T02:16:19;101958.78;;;4.92;82.88
3444;BME280;1736;52.068;6.968;2023-03-04T02:18:46;101948.97;;;4.95;82.87
3444;BME280;1736;52.068;6.968;2023-03-04T02:21:18;101950.56;;;4.99;82.98
3444;BME280;1736;52.068;6.968;2023-03-04T02:23:53;101944.25;;;5.03;82.17
3444;BME280;1736;52.068;6.968;2023-03-04T02:26:23;101946.06;;;5.03;81.38
3444;BME280;1736;52.068;6.968;2023-03-04T02:28:52;101940.63;;;5.06;81.60
3444;BME280;1736;52.068;6.968;2023-03-04T02:31:23;101946.06;;;5.03;82.42
3444;BME280;1736;52.068;6.968;2023-03-04T02:33:52;101934.78;;;4.99;82.57
3444;BME280;1736;52.068;6.968;2023-03-04T02:36:19;101934.66;;;5.02;83.06
3444;BME280;1736;52.068;6.968;2023-03-04T02:38:46;101941.41;;;5.09;82.51
3444;BME280;1736;52.068;6.968;2023-03-04T02:41:14;101937.34;;;5.01;83.17
3444;BME280;1736;52.068;6.968;2023-03-04T02:43:44;101931.59;;;5.13;82.63
3444;BME280;1736;52.068;6.968;2023-03-04T02:46:12;101928.28;;;5.08;81.52
3444;BME280;1736;52.068;6.968;2023-03-04T02:48:39;101919.75;;;5.03;81.96
3444;BME280;1736;52.068;6.968;2023-03-04T02:51:05;101922.38;;;5.03;82.65
3444;BME280;1736;52.068;6.968;2023-03-04T02:53:32;101921.69;;;4.98;83.13
3444;BME280;1736;52.068;6.968;2023-03-04T02:55:58;101916.44;;;4.98;83.54
3444;BME280;1736;52.068;6.968;2023-03-04T02:58:25;101913.88;;;4.96;83.58
3444;BME280;1736;52.068;6.968;2023-03-04T03:00:54;101910.38;;;4.96;83.26
3444;BME280;1736;52.068;6.968;2023-03-04T03:03:20;101907.63;;;4.99;82.64
3444;BME280;1736;52.068;6.968;2023-03-04T03:05:47;101911.31;;;4.95;82.74
3444;BME280;1736;52.068;6.968;2023-03-04T03:08:14;101904.94;;;5.00;82.03
3444;BME280;1736;52.068;6.968;2023-03-04T03:10:41;101909.22;;;5.03;81.63
3444;BME280;1736;52.068;6.968;2023-03-04T03:13:07;101909.00;;;5.07;81.80
3444;BME280;1736;52.068;6.968;2023-03-04T03:15:34;101905.78;;;5.01;81.88
3444;BME280;1736;52.068;6.968;2023-03-04T03:18:04;101906.59;;;5.03;80.61
3444;BME280;1736;52.068;6.968;2023-03-04T03:20:31;101908.28;;;5.04;80.73
3444;BME280;1736;52.068;6.968;2023-03-04T03:22:57;101905.06;;;4.97;80.81
3444;BME280;1736;52.068;6.968;2023-03-04T03:25:24;101907.63;;;4.99;81.03
3444;BME280;1736;52.068;6.968;2023-03-04T03:27:50;101899.59;;;5.02;80.63
3444;BME280;1736;52.068;6.968;2023-03-04T03:30:17;101900.63;;;4.98;81.11
3444;BME280;1736;52.068;6.968;2023-03-04T03:32:44;101897.22;;;4.96;81.20
3444;BME280;1736;52.068;6.968;2023-03-04T03:35:12;101889.22;;;4.99;81.37
3444;BME280;1736;52.068;6.968;2023-03-04T03:37:38;101893.03;;;4.92;81.57
3444;BME280;1736;52.068;6.968;2023-03-04T03:40:06;101891.69;;;5.02;81.24
3444;BME280;1736;52.068;6.968;2023-03-04T03:42:33;101892.50;;;5.04;81.43
3444;BME280;1736;52.068;6.968;2023-03-04T03:44:59;101890.28;;;4.95;81.29
3444;BME280;1736;52.068;6.968;2023-03-04T03:47:26;101890.28;;;4.95;81.35
3444;BME280;1736;52.068;6.968;2023-03-04T03:49:53;101889.81;;;5.05;81.29
3444;BME280;1736;52.068;6.968;2023-03-04T03:52:21;101885.66;;;5.00;81.17
3444;BME280;1736;52.068;6.968;2023-03-04T03:54:47;101883.28;;;4.94;80.78
3444;BME280;1736;52.068;6.968;2023-03-04T03:57:14;101884.28;;;5.11;80.65
3444;BME280;1736;52.068;6.968;2023-03-04T03:59:40;101880.28;;;5.03;80.97
3444;BME280;1736;52.068;6.968;2023-03-04T04:02:07;101880.13;;;5.06;80.93
3444;BME280;1736;52.068;6.968;2023-03-04T04:04:34;101878.69;;;4.99;81.11
3444;BME280;1736;52.068;6.968;2023-03-04T04:07:01;101884.56;;;5.05;81.37
3444;BME280;1736;52.068;6.968;2023-03-04T04:09:29;101880.06;;;5.07;81.64
3444;BME280;1736;52.068;6.968;2023-03-04T04:11:56;101879.34;;;5.04;81.57
3444;BME280;1736;52.068;6.968;2023-03-04T04:14:22;101881.13;;;5.03;81.42
3444;BME280;1736;52.068;6.968;2023-03-04T04:16:49;101886.44;;;5.02;81.72
3444;BME280;1736;52.068;6.968;2023-03-04T04:19:16;101891.69;;;5.02;81.89
3444;BME280;1736;52.068;6.968;2023-03-04T04:21:43;101892.22;;;4.90;82.80
3444;BME280;1736;52.068;6.968;2023-03-04T04:24:10;101892.97;;;4.93;83.24
3444;BME280;1736;52.068;6.968;2023-03-04T04:26:38;101892.63;;;5.01;83.22
3444;BME280;1736;52.068;6.968;2023-03-04T04:29:05;101886.72;;;4.96;82.67
3444;BME280;1736;52.068;6.968;2023-03-04T04:31:32;101876.13;;;4.97;81.58
3444;BME280;1736;52.068;6.968;2023-03-04T04:33:59;101884.50;;;5.07;82.16
3444;BME280;1736;52.068;6.968;2023-03-04T04:36:26;101882.91;;;5.03;82.12
3444;BME280;1736;52.068;6.968;2023-03-04T04:38:53;101884.09;;;4.96;82.65
3444;BME280;1736;52.068;6.968;2023-03-04T04:41:21;101880.13;;;5.06;82.83
3444;BME280;1736;52.068;6.968;2023-03-04T04:43:50;101877.78;;;5.00;83.51
3444;BME280;1736;52.068;6.968;2023-03-04T04:46:17;101881.44;;;4.96;83.35
3444;BME280;1736;52.068;6.968;2023-03-04T04:48:44;101878.16;;;4.91;83.92
3444;BME280;1736;52.068;6.968;2023-03-04T04:51:11;101871.53;;;5.02;83.89
3444;BME280;1736;52.068;6.968;2023-03-04T04:53:38;101872.25;;;5.06;83.94
3444;BME280;1736;52.068;6.968;2023-03-04T04:56:09;101873.50;;;4.97;83.80
3444;BME280;1736;52.068;6.968;2023-03-04T04:58:36;101869.81;;;5.01;83.81
3444;BME280;1736;52.068;6.968;2023-03-04T05:01:05;101868.47;;;4.91;84.10
3444;BME280;1736;52.068;6.968;2023-03-04T05:03:32;101872.91;;;4.91;84.50
3444;BME280;1736;52.068;6.968;2023-03-04T05:06:00;101875.84;;;4.83;85.11
3444;BME280;1736;52.068;6.968;2023-03-04T05:08:26;101878.34;;;4.86;85.59
3444;BME280;1736;52.068;6.968;2023-03-04T05:10:53;101873.50;;;4.97;85.19
3444;BME280;1736;52.068;6.968;2023-03-04T05:13:20;101879.16;;;4.88;85.32
3444;BME280;1736;52.068;6.968;2023-03-04T05:15:47;101884.53;;;4.85;85.29
3444;BME280;1736;52.068;6.968;2023-03-04T05:18:15;101885.25;;;4.89;85.55
3444;BME280;1736;52.068;6.968;2023-03-04T05:20:41;101880.25;;;4.83;86.15
3444;BME280;1736;52.068;6.968;2023-03-04T05:23:08;101877.69;;;4.81;86.40
3444;BME280;1736;52.068;6.968;2023-03-04T05:25:35;101875.22;;;4.77;86.37
3444;BME280;1736;52.068;6.968;2023-03-04T05:28:01;101880.75;;;4.71;87.10
3444;BME280;1736;52.068;6.968;2023-03-04T05:30:29;101885.47;;;4.63;87.55
3444;BME280;1736;52.068;6.968;2023-03-04T05:32:55;101880.88;;;4.68;87.35
3444;BME280;1736;52.068;6.968;2023-03-04T05:35:23;101881.41;;;4.76;87.87
3444;BME280;1736;52.068;6.968;2023-03-04T05:37:50;101886.84;;;4.71;88.25
3444;BME280;1736;52.068;6.968;2023-03-04T05:40:17;101883.94;;;4.79;88.20
3444;BME280;1736;52.068;6.968;2023-03-04T05:42:43;101895.22;;;4.81;87.62
3444;BME280;1736;52.068;6.968;2023-03-04T05:45:11;101884.31;;;4.70;88.84
3444;BME280;1736;52.068;6.968;2023-03-04T05:47:37;101892.97;;;4.72;88.56
3444;BME280;1736;52.068;6.968;2023-03-04T05:50:05;101882.34;;;4.75;88.68
3444;BME280;1736;52.068;6.968;2023-03-04T05:52:33;101886.00;;;4.71;88.60
3444;BME280;1736;52.068;6.968;2023-03-04T05:54:59;101888.81;;;4.66;89.19
3444;BME280;1736;52.068;6.968;2023-03-04T05:57:26;101886.00;;;4.71;89.59
3444;BME280;1736;52.068;6.968;2023-03-04T05:59:53;101882.72;;;4.66;89.33
3444;BME280;1736;52.068;6.968;2023-03-04T06:02:19;101884.03;;;4.76;89.65
3444;BME280;1736;52.068;6.968;2023-03-04T06:04:46;101885.09;;;4.72;89.16
3444;BME280;1736;52.068;6.968;2023-03-04T06:07:13;101884.47;;;4.65;89.69
3444;BME280;1736;52.068;6.968;2023-03-04T06:09:41;101878.31;;;4.66;90.57
3444;BME280;1736;52.068;6.968;2023-03-04T06:12:09;101878.13;;;4.71;91.01
3444;BME280;1736;52.068;6.968;2023-03-04T06:14:36;101887.53;;;4.76;90.24
3444;BME280;1736;52.068;6.968;2023-03-04T06:17:03;101884.72;;;4.81;89.56
3444;BME280;1736;52.068;6.968;2023-03-04T06:19:29;101882.34;;;4.75;90.16
3444;BME280;1736;52.068;6.968;2023-03-04T06:21:56;101881.53;;;4.73;91.10
3444;BME280;1736;52.068;6.968;2023-03-04T06:24:23;101883.31;;;4.72;91.20
3444;BME280;1736;52.068;6.968;2023-03-04T06:26:51;101881.78;;;4.67;90.93
3444;BME280;1736;52.068;6.968;2023-03-04T06:29:17;101885.91;;;4.74;90.80
3444;BME280;1736;52.068;6.968;2023-03-04T06:31:44;101893.84;;;4.72;90.94
3444;BME280;1736;52.068;6.968;2023-03-04T06:34:11;101887.59;;;4.75;90.77
3444;BME280;1736;52.068;6.968;2023-03-04T06:36:37;101893.03;;;4.70;90.91
3444;BME280;1736;52.068;6.968;2023-03-04T06:39:05;101898.50;;;4.66;90.85
3444;BME280;1736;52.068;6.968;2023-03-04T06:41:32;101900.16;;;4.68;90.62
3444;BME280;1736;52.068;6.968;2023-03-04T06:44:00;101895.13;;;4.62;91.17
3444;BME280;1736;52.068;6.968;2023-03-04T06:46:27;101903.38;;;4.75;90.46
3444;BME280;1736;52.068;6.968;2023-03-04T06:48:53;101905.19;;;4.73;90.58
3444;BME280;1736;52.068;6.968;2023-03-04T06:51:20;101904.22;;;4.75;91.18
3444;BME280;1736;52.068;6.968;2023-03-04T06:53:46;101908.38;;;4.81;91.47
3444;BME280;1736;52.068;6.968;2023-03-04T06:56:13;101904.69;;;4.85;91.94
3444;BME280;1736;52.068;6.968;2023-03-04T06:58:41;101906.84;;;4.75;91.90
3444;BME280;1736;52.068;6.968;2023-03-04T07:01:11;101913.41;;;4.87;90.96
3444;BME280;1736;52.068;6.968;2023-03-04T07:03:38;101904.81;;;4.82;91.56
3444;BME280;1736;52.068;6.968;2023-03-04T07:06:05;101906.94;;;4.74;92.53
3444;BME280;1736;52.068;6.968;2023-03-04T07:08:32;101909.56;;;4.74;94.12
3444;BME280;1736;52.068;6.968;2023-03-04T07:10:58;101913.69;;;4.79;94.65
3444;BME280;1736;52.068;6.968;2023-03-04T07:13:25;101908.53;;;4.78;95.55
3444;BME280;1736;52.068;6.968;2023-03-04T07:15:52;101911.44;;;4.92;95.87
3444;BME280;1736;52.068;6.968;2023-03-04T07:18:20;101920.25;;;4.91;96.40
3444;BME280;1736;52.068;6.968;2023-03-04T07:20:46;101907.88;;;4.93;97.42
3444;BME280;1736;52.068;6.968;2023-03-04T07:23:13;101913.56;;;4.82;99.38
3444;BME280;1736;52.068;6.968;2023-03-04T07:25:39;101920.31;;;4.68;100.00
3444;BME280;1736;52.068;6.968;2023-03-04T07:28:06;101921.19;;;4.68;100.00
3444;BME280;1736;52.068;6.968;2023-03-04T07:30:33;101917.06;;;4.61;100.00
3444;BME280;1736;52.068;6.968;2023-03-04T07:32:59;101922.72;;;4.74;100.00
3444;BME280;1736;52.068;6.968;2023-03-04T07:35:28;101919.28;;;4.72;100.00
3444;BME280;1736;52.068;6.968;2023-03-04T07:37:54;101923.00;;;4.88;100.00
3444;BME280;1736;52.068;6.968;2023-03-04T07:40:21;101912.34;;;4.91;100.00
3444;BME280;1736;52.068;6.968;2023-03-04T07:42:49;101917.34;;;4.97;100.00
3444;BME280;1736;52.068;6.968;2023-03-04T07:45:16;101913.34;;;4.88;100.00
3444;BME280;1736;52.068;6.968;2023-03-04T07:47:42;101923.91;;;4.87;100.00
3444;BME280;1736;52.068;6.968;2023-03-04T07:50:10;101912.50;;;5.08;100.00
3444;BME280;1736;52.068;6.968;2023-03-04T07:52:39;101920.63;;;5.02;100.00
3444;BME280;1736;52.068;6.968;2023-03-04T07:55:07;101914.34;;;5.06;100.00
3444;BME280;1736;52.068;6.968;2023-03-04T07:57:34;101918.19;;;5.19;100.00
3444;BME280;1736;52.068;6.968;2023-03-04T08:00:01;101921.59;;;5.21;100.00
3444;BME280;1736;52.068;6.968;2023-03-04T08:02:27;101910.13;;;5.22;100.00
3444;BME280;1736;52.068;6.968;2023-03-04T08:04:54;101907.97;;;5.31;100.00
3444;BME280;1736;52.068;6.968;2023-03-04T08:07:21;101916.22;;;5.44;100.00
3444;BME280;1736;52.068;6.968;2023-03-04T08:09:49;101914.69;;;5.38;100.00
3444;BME280;1736;52.068;6.968;2023-03-04T08:12:16;101908.38;;;5.42;100.00
3444;BME280;1736;52.068;6.968;2023-03-04T08:14:43;101917.16;;;5.43;100.00
3444;BME280;1736;52.068;6.968;2023-03-04T08:17:09;101911.94;;;5.62;100.00
3444;BME280;1736;52.068;6.968;2023-03-04T08:19:39;101911.13;;;5.59;100.00
3444;BME280;1736;52.068;6.968;2023-03-04T08:22:06;101918.19;;;5.39;100.00
3444;BME280;1736;52.068;6.968;2023-03-04T08:24:32;101917.50;;;5.54;100.00
3444;BME280;1736;52.068;6.968;2023-03-04T08:27:01;101918.56;;;5.50;100.00
3444;BME280;1736;52.068;6.968;2023-03-04T08:29:28;101913.66;;;5.42;100.00
3444;BME280;1736;52.068;6.968;2023-03-04T08:31:54;101915.69;;;5.56;100.00
3444;BME280;1736;52.068;6.968;2023-03-04T08:34:23;101919.09;;;5.58;100.00
3444;BME280;1736;52.068;6.968;2023-03-04T08:36:50;101911.41;;;5.74;100.00
3444;BME280;1736;52.068;6.968;2023-03-04T08:39:17;101914.03;;;5.74;100.00
3444;BME280;1736;52.068;6.968;2023-03-04T08:41:44;101912.94;;;5.78;100.00
3444;BME280;1736;52.068;6.968;2023-03-04T08:44:13;101917.13;;;5.83;100.00
3444;BME280;1736;52.068;6.968;2023-03-04T08:46:41;101921.56;;;5.83;100.00
3444;BME280;1736;52.068;6.968;2023-03-04T08:49:10;101928.69;;;5.79;100.00
3444;BME280;1736;52.068;6.968;2023-03-04T08:51:36;101930.03;;;5.89;100.00
3444;BME280;1736;52.068;6.968;2023-03-04T08:54:04;101925.69;;;5.88;100.00
3444;BME280;1736;52.068;6.968;2023-03-04T08:56:31;101926.34;;;5.73;100.00
3444;BME280;1736;52.068;6.968;2023-03-04T08:58:58;101924.25;;;5.81;100.00
3444;BME280;1736;52.068;6.968;2023-03-04T09:01:26;101924.88;;;5.86;100.00
3444;BME280;1736;52.068;6.968;2023-03-04T09:03:52;101920.41;;;5.68;100.00
3444;BME280;1736;52.068;6.968;2023-03-04T09:06:19;101915.66;;;5.96;100.00
3444;BME280;1736;52.068;6.968;2023-03-04T09:08:47;101916.34;;;5.81;100.00
3444;BME280;1736;52.068;6.968;2023-03-04T09:11:14;101915.47;;;5.81;100.00
3444;BME280;1736;52.068;6.968;2023-03-04T09:13:40;101918.22;;;5.78;100.00
3444;BME280;1736;52.068;6.968;2023-03-04T09:16:08;101917.06;;;5.85;100.00
3444;BME280;1736;52.068;6.968;2023-03-04T09:18:36;101915.06;;;5.90;100.00
3444;BME280;1736;52.068;6.968;2023-03-04T09:21:04;101909.66;;;5.93;100.00
3444;BME280;1736;52.068;6.968;2023-03-04T09:23:31;101907.91;;;5.93;100.00
3444;BME280;1736;52.068;6.968;2023-03-04T09:25:57;101910.78;;;5.87;100.00
3444;BME280;1736;52.068;6.968;2023-03-04T09:28:24;101902.00;;;6.07;100.00
3444;BME280;1736;52.068;6.968;2023-03-04T09:30:51;101907.09;;;6.28;100.00
3444;BME280;1736;52.068;6.968;2023-03-04T09:33:17;101910.41;;;6.33;100.00
3444;BME280;1736;52.068;6.968;2023-03-04T09:35:45;101900.88;;;6.31;100.00
3444;BME280;1736;52.068;6.968;2023-03-04T09:38:14;101898.97;;;6.51;100.00
3444;BME280;1736;52.068;6.968;2023-03-04T09:40:43;101899.59;;;6.56;100.00
3444;BME280;1736;52.068;6.968;2023-03-04T09:43:17;101895.31;;;6.72;100.00
3444;BME280;1736;52.068;6.968;2023-03-04T09:45:47;101898.88;;;6.71;99.77
3444;BME280;1736;52.068;6.968;2023-03-04T09:48:17;101897.47;;;6.81;99.38
3444;BME280;1736;52.068;6.968;2023-03-04T09:51:03;101896.72;;;6.79;99.64
3444;BME280;1736;52.068;6.968;2023-03-04T09:53:39;101902.97;;;6.60;100.00
3444;BME280;1736;52.068;6.968;2023-03-04T09:56:09;101896.09;;;6.74;100.00
3444;BME280;1736;52.068;6.968;2023-03-04T09:58:44;101899.00;;;6.68;100.00
3444;BME280;1736;52.068;6.968;2023-03-04T10:01:19;101896.28;;;6.53;100.00
3444;BME280;1736;52.068;6.968;2023-03-04T10:03:51;101897.41;;;6.47;100.00
3444;BME280;1736;52.068;6.968;2023-03-04T10:06:21;101900.94;;;6.29;100.00
3444;BME280;1736;52.068;6.968;2023-03-04T10:08:52;101903.97;;;6.20;100.00
3444;BME280;1736;52.068;6.968;2023-03-04T10:11:25;101899.06;;;6.31;100.00
3444;BME280;1736;52.068;6.968;2023-03-04T10:13:59;101891.88;;;6.35;100.00
3444;BME280;1736;52.068;6.968;2023-03-04T10:16:31;101887.88;;;6.26;100.00
3444;BME280;1736;52.068;6.968;2023-03-04T10:19:08;101883.81;;;6.19;100.00
3444;BME280;1736;52.068;6.968;2023-03-04T10:21:44;101883.63;;;6.24;100.00
3444;BME280;1736;52.068;6.968;2023-03-04T10:24:13;101895.44;;;6.15;100.00
3444;BME280;1736;52.068;6.968;2023-03-04T10:26:44;101890.72;;;6.22;100.00
3444;BME280;1736;52.068;6.968;2023-03-04T10:29:13;101889.59;;;6.27;100.00
3444;BME280;1736;52.068;6.968;2023-03-04T10:31:40;101884.75;;;6.37;100.00
3444;BME280;1736;52.068;6.968;2023-03-04T10:34:09;101886.94;;;6.27;100.00
3444;BME280;1736;52.068;6.968;2023-03-04T10:36:46;101887.59;;;6.32;100.00
3444;BME280;1736;52.068;6.968;2023-03-04T10:39:18;101888.03;;;6.23;100.00
3444;BME280;1736;52.068;6.968;2023-03-04T10:41:55;101882.19;;;6.17;100.00
3444;BME280;1736;52.068;6.968;2023-03-04T10:44:22;101898.81;;;6.19;100.00
3444;BME280;1736;52.068;6.968;2023-03-04T10:46:51;101890.47;;;6.09;100.00
3444;BME280;1736;52.068;6.968;2023-03-04T10:49:19;101885.03;;;6.12;100.00
3444;BME280;1736;52.068;6.968;2023-03-04T10:51:48;101883.63;;;6.05;100.00
3444;BME280;1736;52.068;6.968;2023-03-04T10:54:23;101876.34;;;6.10;100.00
3444;BME280;1736;52.068;6.968;2023-03-04T10:56:59;101885.53;;;6.20;100.00
3444;BME280;1736;52.068;6.968;2023-03-04T10:59:33;101878.91;;;6.30;100.00
3444;BME280;1736;52.068;6.968;2023-03-04T11:02:18;101876.13;;;6.33;100.00
3444;BME280;1736;52.068;6.968;2023-03-04T11:04:49;101865.38;;;6.55;100.00
3444;BME280;1736;52.068;6.968;2023-03-04T11:07:19;101873.09;;;6.59;100.00
3444;BME280;1736;52.068;6.968;2023-03-04T11:09:47;101869.09;;;6.69;100.00
3444;BME280;1736;52.068;6.968;2023-03-04T11:12:15;101869.19;;;6.85;100.00
3444;BME280;1736;52.068;6.968;2023-03-04T11:14:45;101861.81;;;6.74;100.00
3444;BME280;1736;52.068;6.968;2023-03-04T11:17:24;101865.53;;;6.87;100.00
3444;BME280;1736;52.068;6.968;2023-03-04T11:19:55;101860.94;;;6.91;100.00
3444;BME280;1736;52.068;6.968;2023-03-04T11:22:26;101863.50;;;6.92;100.00
3444;BME280;1736;52.068;6.968;2023-03-04T11:25:00;101858.97;;;6.96;100.00
3444;BME280;1736;52.068;6.968;2023-03-04T11:27:38;101861.97;;;7.05;99.01
3444;BME280;1736;52.068;6.968;2023-03-04T11:30:22;101852.34;;;7.04;96.66
3444;BME280;1736;52.068;6.968;2023-03-04T11:32:52;101868.31;;;7.01;97.91
3444;BME280;1736;52.068;6.968;2023-03-04T11:35:26;101859.66;;;6.99;96.92
3444;BME280;1736;52.068;6.968;2023-03-04T11:37:59;101858.25;;;6.92;94.65
3444;BME280;1736;52.068;6.968;2023-03-04T11:40:32;101853.56;;;6.80;95.24
3444;BME280;1736;52.068;6.968;2023-03-04T11:43:04;101857.59;;;6.70;93.73
3444;BME280;1736;52.068;6.968;2023-03-04T11:45:45;101850.91;;;6.63;94.25
3444;BME280;1736;52.068;6.968;2023-03-04T11:48:23;101850.44;;;6.72;94.49
3444;BME280;1736;52.068;6.968;2023-03-04T11:50:57;101851.47;;;6.87;93.18
3444;BME280;1736;52.068;6.968;2023-03-04T11:53:34;101845.22;;;7.06;91.48
3444;BME280;1736;52.068;6.968;2023-03-04T11:56:11;101843.25;;;7.27;91.07
3444;BME280;1736;52.068;6.968;2023-03-04T11:58:50;101842.06;;;7.32;87.49
3444;BME280;1736;52.068;6.968;2023-03-04T12:01:22;101843.50;;;7.55;85.44
3444;BME280;1736;52.068;6.968;2023-03-04T12:04:15;101828.22;;;7.77;86.22
3444;BME280;1736;52.068;6.968;2023-03-04T12:06:52;101833.50;;;7.77;85.04
3444;BME280;1736;52.068;6.968;2023-03-04T12:09:31;101827.47;;;7.90;81.66
3444;BME280;1736;52.068;6.968;2023-03-04T12:12:11;101829.81;;;7.64;81.90
3444;BME280;1736;52.068;6.968;2023-03-04T12:14:55;101834.28;;;7.79;82.76
3444;BME280;1736;52.068;6.968;2023-03-04T12:17:36;101828.00;;;7.49;84.19
3444;BME280;1736;52.068;6.968;2023-03-04T12:20:24;101820.19;;;7.30;85.62
3444;BME280;1736;52.068;6.968;2023-03-04T12:22:59;101832.22;;;7.19;86.58
3444;BME280;1736;52.068;6.968;2023-03-04T12:25:40;101810.44;;;6.98;85.85
3444;BME280;1736;52.068;6.968;2023-03-04T12:28:25;101820.34;;;6.93;86.43
3444;BME280;1736;52.068;6.968;2023-03-04T12:31:06;101808.72;;;6.97;86.63
3444;BME280;1736;52.068;6.968;2023-03-04T12:33:47;101810.13;;;7.04;87.08
3444;BME280;1736;52.068;6.968;2023-03-04T12:36:26;101813.38;;;7.09;86.47
3444;BME280;1736;52.068;6.968;2023-03-04T12:38:59;101819.56;;;7.25;86.58
3444;BME280;1736;52.068;6.968;2023-03-04T12:41:39;101811.38;;;7.14;85.64
3444;BME280;1736;52.068;6.968;2023-03-04T12:44:13;101802.81;;;7.26;86.38
3444;BME280;1736;52.068;6.968;2023-03-04T12:47:02;101814.63;;;7.19;85.49
3444;BME280;1736;52.068;6.968;2023-03-04T12:49:54;101810.66;;;7.11;85.56
3444;BME280;1736;52.068;6.968;2023-03-04T12:52:33;101805.31;;;6.95;84.03
3444;BME280;1736;52.068;6.968;2023-03-04T12:55:07;101799.50;;;6.89;83.48
3444;BME280;1736;52.068;6.968;2023-03-04T12:57:37;101797.22;;;6.81;83.50
3444;BME280;1736;52.068;6.968;2023-03-04T13:00:16;101794.28;;;6.87;83.93
3444;BME280;1736;52.068;6.968;2023-03-04T13:02:53;101792.75;;;6.83;83.69
3444;BME280;1736;52.068;6.968;2023-03-04T13:05:30;101779.22;;;6.89;85.03
3444;BME280;1736;52.068;6.968;2023-03-04T13:08:06;101789.63;;;6.92;85.13
3444;BME280;1736;52.068;6.968;2023-03-04T13:10:34;101782.56;;;7.10;84.56
3444;BME280;1736;52.068;6.968;2023-03-04T13:13:02;101783.69;;;7.21;84.20
3444;BME280;1736;52.068;6.968;2023-03-04T13:15:32;101781.06;;;7.21;83.02
3444;BME280;1736;52.068;6.968;2023-03-04T13:18:02;101782.66;;;7.41;83.38
3444;BME280;1736;52.068;6.968;2023-03-04T13:20:37;101778.72;;;7.48;82.75
3444;BME280;1736;52.068;6.968;2023-03-04T13:23:27;101769.06;;;7.64;81.57
3444;BME280;1736;52.068;6.968;2023-03-04T13:26:28;101771.59;;;7.65;80.03
3444;BME280;1736;52.068;6.968;2023-03-04T13:29:33;101768.69;;;7.54;78.46
3444;BME280;1736;52.068;6.968;2023-03-04T13:32:03;101774.84;;;7.55;78.76